SJX1138 EKCH-LIPX
Flight info
| Callsign | SJX1138 |
|---|---|
| Flight time | N/A |
| Altitude | 39000 |
| Route | SALLO M736 BAKDO DCT ABERU/N0479F410 DCT ALUTU/N0475F400 DCT BADVI DCT BERAS/N0479F410 M736 OLPIX/N0383F190 M736 OZE T897 ANJAT |
| Aircraft | A359/H-SDE2E3GHIJ3J4J5LM1ORWXY/LB1D1 |
Departure
| Time | N/A |
|---|---|
| Airport | Copenhagen Kastrup Airport (EKCH) |
Arrival
| Time | 2026-05-05 08:36 |
|---|---|
| Airport | Verona Villafranca Valerio Catullo Airport (LIPX) |
| Time | Latitude | Longitude | Altitude | Speed | Heading |
|---|---|---|---|---|---|
| 2026-05-05 08:12 | 46.54810 | 11.37780 | 32692 ft | 435 kts | 205° |
| 2026-05-05 08:12 | 46.52039 | 11.35953 | 32145 ft | 431 kts | 205° |
| 2026-05-05 08:12 | 46.49318 | 11.34160 | 31619 ft | 427 kts | 205° |
| 2026-05-05 08:13 | 46.46605 | 11.32438 | 31091 ft | 424 kts | 201° |
| 2026-05-05 08:13 | 46.43886 | 11.30965 | 30572 ft | 420 kts | 200° |
| 2026-05-05 08:13 | 46.41191 | 11.29239 | 30054 ft | 417 kts | 208° |
| 2026-05-05 08:13 | 46.38781 | 11.27058 | 29463 ft | 413 kts | 216° |
| 2026-05-05 08:14 | 46.36341 | 11.24919 | 29014 ft | 408 kts | 208° |
| 2026-05-05 08:14 | 46.33845 | 11.22977 | 28531 ft | 404 kts | 208° |
| 2026-05-05 08:14 | 46.31376 | 11.21083 | 28027 ft | 400 kts | 208° |
| 2026-05-05 08:14 | 46.28924 | 11.19228 | 27526 ft | 396 kts | 207° |
| 2026-05-05 08:15 | 46.26702 | 11.17565 | 27053 ft | 393 kts | 207° |
| 2026-05-05 08:15 | 46.24283 | 11.15767 | 26556 ft | 390 kts | 207° |
| 2026-05-05 08:15 | 46.21876 | 11.13984 | 26046 ft | 387 kts | 207° |
| 2026-05-05 08:15 | 46.19482 | 11.12215 | 25537 ft | 385 kts | 207° |
| 2026-05-05 08:16 | 46.17108 | 11.10460 | 25025 ft | 383 kts | 207° |
| 2026-05-05 08:16 | 46.14740 | 11.08711 | 24513 ft | 381 kts | 207° |
| 2026-05-05 08:16 | 46.12389 | 11.06976 | 23989 ft | 379 kts | 207° |
| 2026-05-05 08:16 | 46.10050 | 11.05231 | 23453 ft | 378 kts | 208° |
| 2026-05-05 08:17 | 46.07753 | 11.03411 | 22894 ft | 375 kts | 209° |
| 2026-05-05 08:17 | 46.05495 | 11.01560 | 22378 ft | 372 kts | 210° |
| 2026-05-05 08:17 | 46.03265 | 10.99712 | 21862 ft | 369 kts | 210° |
| 2026-05-05 08:17 | 46.01043 | 10.97875 | 21346 ft | 367 kts | 209° |
| 2026-05-05 08:18 | 45.98836 | 10.96063 | 20822 ft | 364 kts | 209° |
| 2026-05-05 08:18 | 45.96635 | 10.94271 | 20312 ft | 362 kts | 209° |
| 2026-05-05 08:18 | 45.94450 | 10.92502 | 19798 ft | 360 kts | 209° |
| 2026-05-05 08:18 | 45.92277 | 10.90747 | 19289 ft | 357 kts | 209° |
| 2026-05-05 08:19 | 45.90111 | 10.89003 | 18781 ft | 356 kts | 209° |
| 2026-05-05 08:19 | 45.87985 | 10.87293 | 18268 ft | 354 kts | 209° |
| 2026-05-05 08:19 | 45.85842 | 10.85570 | 17708 ft | 352 kts | 209° |
| 2026-05-05 08:19 | 45.84407 | 10.84422 | 17344 ft | 349 kts | 209° |
| 2026-05-05 08:20 | 45.82190 | 10.83073 | 16869 ft | 345 kts | 197° |
| 2026-05-05 08:20 | 45.79074 | 10.82326 | 16198 ft | 341 kts | 187° |
| 2026-05-05 08:20 | 45.76720 | 10.82107 | 15697 ft | 338 kts | 184° |
| 2026-05-05 08:20 | 45.74377 | 10.82026 | 15197 ft | 335 kts | 182° |
| 2026-05-05 08:21 | 45.72806 | 10.82008 | 14864 ft | 333 kts | 182° |
| 2026-05-05 08:21 | 45.70502 | 10.82000 | 14399 ft | 330 kts | 182° |
| 2026-05-05 08:21 | 45.68215 | 10.81988 | 13902 ft | 328 kts | 182° |
| 2026-05-05 08:21 | 45.65942 | 10.81943 | 13371 ft | 324 kts | 184° |
| 2026-05-05 08:22 | 45.63767 | 10.81482 | 12902 ft | 319 kts | 193° |
| 2026-05-05 08:22 | 45.61612 | 10.80755 | 12439 ft | 317 kts | 194° |
| 2026-05-05 08:22 | 45.59481 | 10.79987 | 11987 ft | 315 kts | 195° |
| 2026-05-05 08:22 | 45.57360 | 10.79208 | 11520 ft | 314 kts | 194° |
| 2026-05-05 08:23 | 45.55254 | 10.78428 | 11052 ft | 313 kts | 194° |
| 2026-05-05 08:23 | 45.53151 | 10.77644 | 10601 ft | 312 kts | 194° |
| 2026-05-05 08:23 | 45.51066 | 10.76869 | 10274 ft | 304 kts | 194° |
| 2026-05-05 08:23 | 45.49068 | 10.76113 | 10138 ft | 290 kts | 194° |
| 2026-05-05 08:24 | 45.47158 | 10.75396 | 9996 ft | 276 kts | 194° |
| 2026-05-05 08:24 | 45.45336 | 10.74713 | 9884 ft | 270 kts | 194° |
| 2026-05-05 08:24 | 45.43513 | 10.74030 | 9585 ft | 271 kts | 194° |
| 2026-05-05 08:24 | 45.41685 | 10.73338 | 9242 ft | 272 kts | 195° |
| 2026-05-05 08:25 | 45.39953 | 10.72280 | 8951 ft | 273 kts | 212° |
| 2026-05-05 08:25 | 45.38494 | 10.70536 | 8634 ft | 274 kts | 222° |
| 2026-05-05 08:25 | 45.37144 | 10.68626 | 8334 ft | 274 kts | 223° |
| 2026-05-05 08:25 | 45.35797 | 10.66713 | 8039 ft | 273 kts | 223° |
| 2026-05-05 08:26 | 45.34463 | 10.64791 | 7726 ft | 273 kts | 224° |
| 2026-05-05 08:26 | 45.33170 | 10.62855 | 7441 ft | 274 kts | 224° |
| 2026-05-05 08:26 | 45.31870 | 10.60903 | 7249 ft | 267 kts | 224° |
| 2026-05-05 08:26 | 45.30620 | 10.59035 | 7128 ft | 256 kts | 224° |
| 2026-05-05 08:27 | 45.29415 | 10.57248 | 7003 ft | 244 kts | 223° |
| 2026-05-05 08:27 | 45.28262 | 10.55575 | 6752 ft | 231 kts | 223° |
| 2026-05-05 08:27 | 45.27064 | 10.54145 | 6366 ft | 221 kts | 208° |
| 2026-05-05 08:27 | 45.25630 | 10.53631 | 5988 ft | 209 kts | 175° |
| 2026-05-05 08:28 | 45.24279 | 10.54254 | 5757 ft | 206 kts | 147° |
| 2026-05-05 08:28 | 45.23175 | 10.55571 | 5544 ft | 208 kts | 136° |
| 2026-05-05 08:28 | 45.22148 | 10.57011 | 5291 ft | 207 kts | 135° |
| 2026-05-05 08:28 | 45.21228 | 10.58562 | 5028 ft | 206 kts | 121° |
| 2026-05-05 08:29 | 45.21009 | 10.60535 | 4786 ft | 208 kts | 79° |
| 2026-05-05 08:29 | 45.21562 | 10.62431 | 4483 ft | 209 kts | 59° |
| 2026-05-05 08:29 | 45.22476 | 10.64035 | 4227 ft | 210 kts | 49° |
| 2026-05-05 08:30 | 45.24488 | 10.66962 | 3848 ft | 199 kts | 47° |
| 2026-05-05 08:30 | 45.25431 | 10.68318 | 3778 ft | 186 kts | 48° |
| 2026-05-05 08:30 | 45.26305 | 10.69579 | 3631 ft | 173 kts | 48° |
| 2026-05-05 08:30 | 45.27113 | 10.70747 | 3515 ft | 159 kts | 49° |
| 2026-05-05 08:31 | 45.27851 | 10.71826 | 3333 ft | 147 kts | 49° |
| 2026-05-05 08:31 | 45.28547 | 10.72837 | 3152 ft | 140 kts | 48° |
| 2026-05-05 08:31 | 45.29211 | 10.73800 | 2954 ft | 134 kts | 48° |
| 2026-05-05 08:31 | 45.29852 | 10.74730 | 2784 ft | 130 kts | 49° |
| 2026-05-05 08:32 | 45.30487 | 10.75652 | 2605 ft | 131 kts | 48° |
| 2026-05-05 08:32 | 45.31125 | 10.76577 | 2425 ft | 130 kts | 50° |
| 2026-05-05 08:32 | 45.31759 | 10.77498 | 2247 ft | 130 kts | 50° |
| 2026-05-05 08:32 | 45.32391 | 10.78413 | 2084 ft | 130 kts | 49° |
| 2026-05-05 08:33 | 45.33021 | 10.79329 | 1895 ft | 129 kts | 50° |
| 2026-05-05 08:33 | 45.33650 | 10.80244 | 1730 ft | 129 kts | 48° |
| 2026-05-05 08:33 | 45.34281 | 10.81162 | 1535 ft | 130 kts | 49° |
| 2026-05-05 08:33 | 45.34913 | 10.82078 | 1369 ft | 130 kts | 50° |
| 2026-05-05 08:34 | 45.35537 | 10.82986 | 1187 ft | 130 kts | 49° |
| 2026-05-05 08:34 | 45.36171 | 10.83905 | 1007 ft | 130 kts | 50° |
| 2026-05-05 08:34 | 45.36799 | 10.84820 | 821 ft | 129 kts | 48° |
| 2026-05-05 08:34 | 45.37428 | 10.85736 | 659 ft | 130 kts | 47° |
| 2026-05-05 08:35 | 45.38060 | 10.86655 | 461 ft | 130 kts | 46° |
| 2026-05-05 08:35 | 45.38692 | 10.87557 | 328 ft | 130 kts | 51° |
| 2026-05-05 08:35 | 45.39301 | 10.88455 | 248 ft | 129 kts | 49° |
| 2026-05-05 08:35 | 45.39869 | 10.89292 | 243 ft | 97 kts | 45° |
| 2026-05-05 08:36 | 45.40291 | 10.89904 | 245 ft | 79 kts | 45° |
| 2026-05-05 08:36 | 45.40535 | 10.90257 | 243 ft | 33 kts | 46° |
| 2026-05-05 08:36 | 45.40607 | 10.90438 | 244 ft | 0 kts | 74° |
| 2026-05-05 08:36 | 45.40608 | 10.90442 | 244 ft | 2 kts | 74° |
| 2026-05-05 08:37 | 45.40617 | 10.90487 | 244 ft | 8 kts | 74° |
| 2026-05-05 08:37 | 45.40630 | 10.90585 | 243 ft | 11 kts | 95° |
| 2026-05-05 08:37 | 45.40583 | 10.90665 | 243 ft | 10 kts | 135° |
| 2026-05-05 08:37 | 45.40536 | 10.90730 | 243 ft | 10 kts | 135° |
| 2026-05-05 08:38 | 45.40525 | 10.90745 | 243 ft | 0 kts | 136° |
| 2026-05-05 08:38 | 45.40508 | 10.90768 | 243 ft | 7 kts | 136° |
| 2026-05-05 08:39 | 45.40497 | 10.90785 | 243 ft | 0 kts | 133° |
| 2026-05-05 08:39 | 45.40494 | 10.90794 | 243 ft | 2 kts | 114° |
| 2026-05-05 08:39 | 45.40497 | 10.90812 | 243 ft | 3 kts | 78° |
| 2026-05-05 08:39 | 45.40516 | 10.90848 | 243 ft | 3 kts | 49° |
| 2026-05-05 08:40 | 45.40537 | 10.90856 | 243 ft | 1 kts | 3° |
| 2026-05-05 08:40 | 45.40538 | 10.90856 | 243 ft | 0 kts | 3° |